sensor_id;sensor_type;location;lat;lon;timestamp;temperature;humidity
79301;SHT31;68755;51.984;5.646;2023-04-03T00:00:18;6.0;58.9
79301;SHT31;68755;51.984;5.646;2023-04-03T00:02:48;6.0;59.0
79301;SHT31;68755;51.984;5.646;2023-04-03T00:05:17;6.0;59.2
79301;SHT31;68755;51.984;5.646;2023-04-03T00:07:47;5.9;59.2
79301;SHT31;68755;51.984;5.646;2023-04-03T00:10:17;5.9;59.2
79301;SHT31;68755;51.984;5.646;2023-04-03T00:12:47;5.8;59.3
79301;SHT31;68755;51.984;5.646;2023-04-03T00:15:16;5.8;59.8
79301;SHT31;68755;51.984;5.646;2023-04-03T00:17:46;5.8;59.6
79301;SHT31;68755;51.984;5.646;2023-04-03T00:20:16;5.7;59.7
79301;SHT31;68755;51.984;5.646;2023-04-03T00:22:45;5.7;59.9
79301;SHT31;68755;51.984;5.646;2023-04-03T00:25:15;5.7;59.8
79301;SHT31;68755;51.984;5.646;2023-04-03T00:27:45;5.7;60.1
79301;SHT31;68755;51.984;5.646;2023-04-03T00:30:17;5.6;60.0
79301;SHT31;68755;51.984;5.646;2023-04-03T00:32:49;5.6;59.8
79301;SHT31;68755;51.984;5.646;2023-04-03T00:35:20;5.6;60.0
79301;SHT31;68755;51.984;5.646;2023-04-03T00:37:53;5.6;59.8
79301;SHT31;68755;51.984;5.646;2023-04-03T00:40:25;5.5;60.3
79301;SHT31;68755;51.984;5.646;2023-04-03T00:42:58;5.5;60.1
79301;SHT31;68755;51.984;5.646;2023-04-03T00:45:34;5.5;60.2
79301;SHT31;68755;51.984;5.646;2023-04-03T00:48:08;5.5;60.2
79301;SHT31;68755;51.984;5.646;2023-04-03T00:50:42;5.5;60.2
79301;SHT31;68755;51.984;5.646;2023-04-03T00:53:16;5.4;60.0
79301;SHT31;68755;51.984;5.646;2023-04-03T00:55:47;5.4;60.1
79301;SHT31;68755;51.984;5.646;2023-04-03T00:58:20;5.4;60.2
79301;SHT31;68755;51.984;5.646;2023-04-03T01:00:55;5.4;60.3
79301;SHT31;68755;51.984;5.646;2023-04-03T01:03:27;5.3;60.2
79301;SHT31;68755;51.984;5.646;2023-04-03T01:05:59;5.3;60.3
79301;SHT31;68755;51.984;5.646;2023-04-03T01:08:29;5.3;60.3
79301;SHT31;68755;51.984;5.646;2023-04-03T01:10:59;5.3;60.5
79301;SHT31;68755;51.984;5.646;2023-04-03T01:13:31;5.3;60.7
79301;SHT31;68755;51.984;5.646;2023-04-03T01:16:03;5.2;60.5
79301;SHT31;68755;51.984;5.646;2023-04-03T01:18:39;5.2;60.8
79301;SHT31;68755;51.984;5.646;2023-04-03T01:21:58;5.2;60.8
79301;SHT31;68755;51.984;5.646;2023-04-03T01:24:35;5.2;60.9
79301;SHT31;68755;51.984;5.646;2023-04-03T01:27:11;5.2;61.2
79301;SHT31;68755;51.984;5.646;2023-04-03T01:29:43;5.2;61.2
79301;SHT31;68755;51.984;5.646;2023-04-03T01:32:13;5.1;61.2
79301;SHT31;68755;51.984;5.646;2023-04-03T01:34:42;5.1;61.2
79301;SHT31;68755;51.984;5.646;2023-04-03T01:37:12;5.1;61.3
79301;SHT31;68755;51.984;5.646;2023-04-03T01:39:42;5.1;61.5
79301;SHT31;68755;51.984;5.646;2023-04-03T01:42:12;5.1;61.5
79301;SHT31;68755;51.984;5.646;2023-04-03T01:44:43;5.1;61.5
79301;SHT31;68755;51.984;5.646;2023-04-03T01:47:13;5.0;61.5
79301;SHT31;68755;51.984;5.646;2023-04-03T01:49:43;5.0;61.6
79301;SHT31;68755;51.984;5.646;2023-04-03T01:52:15;5.0;61.9
79301;SHT31;68755;51.984;5.646;2023-04-03T01:54:44;5.0;62.2
79301;SHT31;68755;51.984;5.646;2023-04-03T01:57:14;5.0;62.0
79301;SHT31;68755;51.984;5.646;2023-04-03T01:59:44;5.0;62.3
79301;SHT31;68755;51.984;5.646;2023-04-03T02:02:13;5.0;62.1
79301;SHT31;68755;51.984;5.646;2023-04-03T02:04:43;5.0;62.0
79301;SHT31;68755;51.984;5.646;2023-04-03T02:07:12;5.0;62.1
79301;SHT31;68755;51.984;5.646;2023-04-03T02:09:42;5.0;62.2
79301;SHT31;68755;51.984;5.646;2023-04-03T02:12:12;5.0;62.5
79301;SHT31;68755;51.984;5.646;2023-04-03T02:14:42;4.9;62.6
79301;SHT31;68755;51.984;5.646;2023-04-03T02:17:11;4.9;62.7
79301;SHT31;68755;51.984;5.646;2023-04-03T02:19:42;4.9;62.6
79301;SHT31;68755;51.984;5.646;2023-04-03T02:22:12;4.9;62.8
79301;SHT31;68755;51.984;5.646;2023-04-03T02:24:41;4.9;62.9
79301;SHT31;68755;51.984;5.646;2023-04-03T02:27:12;4.8;63.2
79301;SHT31;68755;51.984;5.646;2023-04-03T02:29:42;4.8;63.2
79301;SHT31;68755;51.984;5.646;2023-04-03T02:32:11;4.8;63.4
79301;SHT31;68755;51.984;5.646;2023-04-03T02:34:41;4.8;63.5
79301;SHT31;68755;51.984;5.646;2023-04-03T02:37:11;4.7;63.7
79301;SHT31;68755;51.984;5.646;2023-04-03T02:39:41;4.7;63.9
79301;SHT31;68755;51.984;5.646;2023-04-03T02:42:10;4.7;64.0
79301;SHT31;68755;51.984;5.646;2023-04-03T02:44:40;4.7;64.2
79301;SHT31;68755;51.984;5.646;2023-04-03T02:47:10;4.7;64.2
79301;SHT31;68755;51.984;5.646;2023-04-03T02:49:39;4.6;64.4
79301;SHT31;68755;51.984;5.646;2023-04-03T02:52:11;4.6;64.5
79301;SHT31;68755;51.984;5.646;2023-04-03T02:54:40;4.6;64.8
79301;SHT31;68755;51.984;5.646;2023-04-03T02:57:11;4.6;64.7
79301;SHT31;68755;51.984;5.646;2023-04-03T02:59:40;4.6;65.0
79301;SHT31;68755;51.984;5.646;2023-04-03T03:02:10;4.6;64.8
79301;SHT31;68755;51.984;5.646;2023-04-03T03:04:40;4.5;64.9
79301;SHT31;68755;51.984;5.646;2023-04-03T03:07:13;4.5;65.0
79301;SHT31;68755;51.984;5.646;2023-04-03T03:09:43;4.5;65.1
79301;SHT31;68755;51.984;5.646;2023-04-03T03:12:12;4.5;65.2
79301;SHT31;68755;51.984;5.646;2023-04-03T03:14:42;4.5;65.4
79301;SHT31;68755;51.984;5.646;2023-04-03T03:17:12;4.5;65.4
79301;SHT31;68755;51.984;5.646;2023-04-03T03:19:42;4.4;65.5
79301;SHT31;68755;51.984;5.646;2023-04-03T03:22:13;4.4;65.7
79301;SHT31;68755;51.984;5.646;2023-04-03T03:24:43;4.4;65.8
79301;SHT31;68755;51.984;5.646;2023-04-03T03:27:14;4.4;65.8
79301;SHT31;68755;51.984;5.646;2023-04-03T03:29:46;4.4;66.1
79301;SHT31;68755;51.984;5.646;2023-04-03T03:32:16;4.4;66.1
79301;SHT31;68755;51.984;5.646;2023-04-03T03:34:46;4.4;66.3
79301;SHT31;68755;51.984;5.646;2023-04-03T03:37:15;4.3;66.1
79301;SHT31;68755;51.984;5.646;2023-04-03T03:39:45;4.3;66.1
79301;SHT31;68755;51.984;5.646;2023-04-03T03:42:15;4.3;66.3
79301;SHT31;68755;51.984;5.646;2023-04-03T03:44:44;4.3;66.1
79301;SHT31;68755;51.984;5.646;2023-04-03T03:47:14;4.3;66.3
79301;SHT31;68755;51.984;5.646;2023-04-03T03:49:45;4.3;66.3
79301;SHT31;68755;51.984;5.646;2023-04-03T03:52:17;4.3;66.6
79301;SHT31;68755;51.984;5.646;2023-04-03T03:54:47;4.3;66.8
79301;SHT31;68755;51.984;5.646;2023-04-03T03:57:16;4.3;66.6
79301;SHT31;68755;51.984;5.646;2023-04-03T03:59:46;4.3;66.4
79301;SHT31;68755;51.984;5.646;2023-04-03T04:02:19;4.3;66.6
79301;SHT31;68755;51.984;5.646;2023-04-03T04:04:48;4.3;66.5
79301;SHT31;68755;51.984;5.646;2023-04-03T04:07:20;4.2;66.3
79301;SHT31;68755;51.984;5.646;2023-04-03T04:09:50;4.2;66.6
79301;SHT31;68755;51.984;5.646;2023-04-03T04:12:20;4.2;66.7
79301;SHT31;68755;51.984;5.646;2023-04-03T04:14:49;4.3;66.7
79301;SHT31;68755;51.984;5.646;2023-04-03T04:17:19;4.3;66.6
79301;SHT31;68755;51.984;5.646;2023-04-03T04:19:49;4.3;66.5
79301;SHT31;68755;51.984;5.646;2023-04-03T04:22:18;4.4;66.3
79301;SHT31;68755;51.984;5.646;2023-04-03T04:24:48;4.4;66.2
79301;SHT31;68755;51.984;5.646;2023-04-03T04:27:20;4.4;66.2
79301;SHT31;68755;51.984;5.646;2023-04-03T04:29:50;4.5;65.8
79301;SHT31;68755;51.984;5.646;2023-04-03T04:32:19;4.6;65.5
79301;SHT31;68755;51.984;5.646;2023-04-03T04:34:49;4.6;65.3
79301;SHT31;68755;51.984;5.646;2023-04-03T04:37:18;4.6;65.1
79301;SHT31;68755;51.984;5.646;2023-04-03T04:39:48;4.6;65.0
79301;SHT31;68755;51.984;5.646;2023-04-03T04:42:18;4.6;65.2
79301;SHT31;68755;51.984;5.646;2023-04-03T04:44:47;4.5;65.0
79301;SHT31;68755;51.984;5.646;2023-04-03T04:47:17;4.5;65.3
79301;SHT31;68755;51.984;5.646;2023-04-03T04:49:49;4.5;65.5
79301;SHT31;68755;51.984;5.646;2023-04-03T04:52:19;4.5;65.7
79301;SHT31;68755;51.984;5.646;2023-04-03T04:54:48;4.6;65.9
79301;SHT31;68755;51.984;5.646;2023-04-03T04:57:18;4.6;65.5
79301;SHT31;68755;51.984;5.646;2023-04-03T04:59:48;4.7;65.0
79301;SHT31;68755;51.984;5.646;2023-04-03T05:02:17;4.7;64.6
79301;SHT31;68755;51.984;5.646;2023-04-03T05:04:47;4.7;64.3
79301;SHT31;68755;51.984;5.646;2023-04-03T05:07:17;4.7;64.0
79301;SHT31;68755;51.984;5.646;2023-04-03T05:09:47;4.6;64.1
79301;SHT31;68755;51.984;5.646;2023-04-03T05:12:17;4.5;64.3
79301;SHT31;68755;51.984;5.646;2023-04-03T05:14:47;4.4;64.6
79301;SHT31;68755;51.984;5.646;2023-04-03T05:17:16;4.3;65.1
79301;SHT31;68755;51.984;5.646;2023-04-03T05:19:46;4.2;65.5
79301;SHT31;68755;51.984;5.646;2023-04-03T05:22:16;4.1;65.9
79301;SHT31;68755;51.984;5.646;2023-04-03T05:24:48;4.1;66.3
79301;SHT31;68755;51.984;5.646;2023-04-03T05:27:17;4.0;66.4
79301;SHT31;68755;51.984;5.646;2023-04-03T05:29:47;4.0;66.3
79301;SHT31;68755;51.984;5.646;2023-04-03T05:32:16;3.9;66.5
79301;SHT31;68755;51.984;5.646;2023-04-03T05:34:46;3.9;66.8
79301;SHT31;68755;51.984;5.646;2023-04-03T05:37:16;3.8;67.0
79301;SHT31;68755;51.984;5.646;2023-04-03T05:39:46;3.8;67.3
79301;SHT31;68755;51.984;5.646;2023-04-03T05:42:15;3.8;67.5
79301;SHT31;68755;51.984;5.646;2023-04-03T05:44:47;3.7;67.5
79301;SHT31;68755;51.984;5.646;2023-04-03T05:47:17;3.7;67.8
79301;SHT31;68755;51.984;5.646;2023-04-03T05:49:47;3.7;68.1
79301;SHT31;68755;51.984;5.646;2023-04-03T05:52:23;3.7;68.1
79301;SHT31;68755;51.984;5.646;2023-04-03T05:54:55;3.7;68.1
79301;SHT31;68755;51.984;5.646;2023-04-03T05:57:25;3.7;68.2
79301;SHT31;68755;51.984;5.646;2023-04-03T05:59:54;3.7;68.3
79301;SHT31;68755;51.984;5.646;2023-04-03T06:02:25;3.7;68.2
79301;SHT31;68755;51.984;5.646;2023-04-03T06:04:55;3.7;68.2
79301;SHT31;68755;51.984;5.646;2023-04-03T06:07:25;3.7;68.1
79301;SHT31;68755;51.984;5.646;2023-04-03T06:09:56;3.7;68.1
79301;SHT31;68755;51.984;5.646;2023-04-03T06:12:27;3.7;68.2
79301;SHT31;68755;51.984;5.646;2023-04-03T06:14:58;3.7;68.2
79301;SHT31;68755;51.984;5.646;2023-04-03T06:17:28;3.7;68.2
79301;SHT31;68755;51.984;5.646;2023-04-03T06:19:59;3.7;68.0
79301;SHT31;68755;51.984;5.646;2023-04-03T06:22:31;3.8;68.1
79301;SHT31;68755;51.984;5.646;2023-04-03T06:25:00;3.8;67.8
79301;SHT31;68755;51.984;5.646;2023-04-03T06:27:30;3.8;68.0
79301;SHT31;68755;51.984;5.646;2023-04-03T06:30:00;3.8;67.7
79301;SHT31;68755;51.984;5.646;2023-04-03T06:32:29;3.9;67.7
79301;SHT31;68755;51.984;5.646;2023-04-03T06:34:59;3.9;67.4
79301;SHT31;68755;51.984;5.646;2023-04-03T06:37:29;3.9;67.3
79301;SHT31;68755;51.984;5.646;2023-04-03T06:39:59;4.0;67.1
79301;SHT31;68755;51.984;5.646;2023-04-03T06:42:30;4.0;66.6
79301;SHT31;68755;51.984;5.646;2023-04-03T06:45:00;4.1;66.2
79301;SHT31;68755;51.984;5.646;2023-04-03T06:47:30;4.1;65.9
79301;SHT31;68755;51.984;5.646;2023-04-03T06:49:59;4.1;65.9
79301;SHT31;68755;51.984;5.646;2023-04-03T06:52:29;4.2;65.4
79301;SHT31;68755;51.984;5.646;2023-04-03T06:54:59;4.2;65.3
79301;SHT31;68755;51.984;5.646;2023-04-03T06:57:29;4.2;65.4
79301;SHT31;68755;51.984;5.646;2023-04-03T06:59:59;4.3;65.2
79301;SHT31;68755;51.984;5.646;2023-04-03T07:02:28;4.3;65.0
79301;SHT31;68755;51.984;5.646;2023-04-03T07:04:58;4.3;65.5
79301;SHT31;68755;51.984;5.646;2023-04-03T07:07:28;4.4;64.4
79301;SHT31;68755;51.984;5.646;2023-04-03T07:09:58;4.4;64.4
79301;SHT31;68755;51.984;5.646;2023-04-03T07:12:27;4.4;64.2
79301;SHT31;68755;51.984;5.646;2023-04-03T07:14:57;4.5;64.3
79301;SHT31;68755;51.984;5.646;2023-04-03T07:17:27;4.5;63.7
79301;SHT31;68755;51.984;5.646;2023-04-03T07:19:56;4.6;63.9
79301;SHT31;68755;51.984;5.646;2023-04-03T07:22:26;4.6;62.7
79301;SHT31;68755;51.984;5.646;2023-04-03T07:24:55;4.7;62.9
79301;SHT31;68755;51.984;5.646;2023-04-03T07:27:26;4.7;62.6
79301;SHT31;68755;51.984;5.646;2023-04-03T07:29:56;4.8;62.3
79301;SHT31;68755;51.984;5.646;2023-04-03T07:32:25;4.8;62.2
79301;SHT31;68755;51.984;5.646;2023-04-03T07:34:55;4.9;62.1
79301;SHT31;68755;51.984;5.646;2023-04-03T07:37:25;4.9;62.1
79301;SHT31;68755;51.984;5.646;2023-04-03T07:39:55;5.0;61.6
79301;SHT31;68755;51.984;5.646;2023-04-03T07:42:26;5.0;61.1
79301;SHT31;68755;51.984;5.646;2023-04-03T07:44:56;5.1;60.0
79301;SHT31;68755;51.984;5.646;2023-04-03T07:47:28;5.2;59.4
79301;SHT31;68755;51.984;5.646;2023-04-03T07:49:58;5.2;57.9
79301;SHT31;68755;51.984;5.646;2023-04-03T07:52:28;5.3;57.6
79301;SHT31;68755;51.984;5.646;2023-04-03T07:54:58;5.4;56.5
79301;SHT31;68755;51.984;5.646;2023-04-03T07:57:27;5.4;55.7
79301;SHT31;68755;51.984;5.646;2023-04-03T07:59:57;5.5;56.1
79301;SHT31;68755;51.984;5.646;2023-04-03T08:02:29;5.6;56.5
79301;SHT31;68755;51.984;5.646;2023-04-03T08:04:59;5.7;55.8
79301;SHT31;68755;51.984;5.646;2023-04-03T08:07:30;5.8;54.5
79301;SHT31;68755;51.984;5.646;2023-04-03T08:10:00;5.9;54.9
79301;SHT31;68755;51.984;5.646;2023-04-03T08:12:30;6.0;53.7
79301;SHT31;68755;51.984;5.646;2023-04-03T08:15:01;6.0;53.0
79301;SHT31;68755;51.984;5.646;2023-04-03T08:17:30;6.1;51.9
79301;SHT31;68755;51.984;5.646;2023-04-03T08:20:00;6.2;50.1
79301;SHT31;68755;51.984;5.646;2023-04-03T08:22:30;6.2;48.3
79301;SHT31;68755;51.984;5.646;2023-04-03T08:25:00;6.3;47.6
79301;SHT31;68755;51.984;5.646;2023-04-03T08:27:30;6.3;46.0
79301;SHT31;68755;51.984;5.646;2023-04-03T08:29:59;6.4;46.4
79301;SHT31;68755;51.984;5.646;2023-04-03T08:32:29;6.4;46.6
79301;SHT31;68755;51.984;5.646;2023-04-03T08:34:59;6.5;45.0
79301;SHT31;68755;51.984;5.646;2023-04-03T08:37:28;6.6;45.0
79301;SHT31;68755;51.984;5.646;2023-04-03T08:39:58;6.6;43.3
79301;SHT31;68755;51.984;5.646;2023-04-03T08:42:39;6.7;42.2
79301;SHT31;68755;51.984;5.646;2023-04-03T08:45:14;6.8;41.1
79301;SHT31;68755;51.984;5.646;2023-04-03T08:47:49;6.8;41.3
79301;SHT31;68755;51.984;5.646;2023-04-03T08:50:23;6.9;41.0
79301;SHT31;68755;51.984;5.646;2023-04-03T08:52:56;6.9;42.5
79301;SHT31;68755;51.984;5.646;2023-04-03T08:55:30;7.0;39.9
79301;SHT31;68755;51.984;5.646;2023-04-03T08:58:03;7.1;39.6
79301;SHT31;68755;51.984;5.646;2023-04-03T09:00:43;7.2;39.2
79301;SHT31;68755;51.984;5.646;2023-04-03T09:03:16;7.3;38.5
79301;SHT31;68755;51.984;5.646;2023-04-03T09:05:49;7.4;36.4
79301;SHT31;68755;51.984;5.646;2023-04-03T09:08:24;7.5;37.2
79301;SHT31;68755;51.984;5.646;2023-04-03T09:11:09;7.6;35.2
79301;SHT31;68755;51.984;5.646;2023-04-03T09:13:51;7.6;36.2
79301;SHT31;68755;51.984;5.646;2023-04-03T09:16:39;7.7;36.3
79301;SHT31;68755;51.984;5.646;2023-04-03T09:19:21;7.8;36.1
79301;SHT31;68755;51.984;5.646;2023-04-03T09:21:53;7.8;34.1
79301;SHT31;68755;51.984;5.646;2023-04-03T09:24:25;7.9;32.7
79301;SHT31;68755;51.984;5.646;2023-04-03T09:26:59;7.9;32.2
79301;SHT31;68755;51.984;5.646;2023-04-03T09:29:30;8.0;31.5
79301;SHT31;68755;51.984;5.646;2023-04-03T09:32:02;8.0;30.2
79301;SHT31;68755;51.984;5.646;2023-04-03T09:34:37;8.0;30.1
79301;SHT31;68755;51.984;5.646;2023-04-03T09:37:09;8.1;28.5
79301;SHT31;68755;51.984;5.646;2023-04-03T09:39:53;8.1;29.5
79301;SHT31;68755;51.984;5.646;2023-04-03T09:42:24;8.1;29.9
79301;SHT31;68755;51.984;5.646;2023-04-03T09:44:57;8.2;27.9
79301;SHT31;68755;51.984;5.646;2023-04-03T09:47:28;8.2;29.2
79301;SHT31;68755;51.984;5.646;2023-04-03T09:51:01;8.2;28.3
79301;SHT31;68755;51.984;5.646;2023-04-03T09:53:37;8.2;28.0
79301;SHT31;68755;51.984;5.646;2023-04-03T09:56:22;8.3;27.6
79301;SHT31;68755;51.984;5.646;2023-04-03T09:59:08;8.3;29.2
79301;SHT31;68755;51.984;5.646;2023-04-03T10:01:58;8.3;28.0
79301;SHT31;68755;51.984;5.646;2023-04-03T10:04:39;8.3;27.7
79301;SHT31;68755;51.984;5.646;2023-04-03T10:07:29;8.3;28.0
79301;SHT31;68755;51.984;5.646;2023-04-03T10:10:03;8.3;28.0
79301;SHT31;68755;51.984;5.646;2023-04-03T10:12:33;8.3;28.0
79301;SHT31;68755;51.984;5.646;2023-04-03T10:15:13;8.4;28.7
79301;SHT31;68755;51.984;5.646;2023-04-03T10:17:51;8.4;29.0
79301;SHT31;68755;51.984;5.646;2023-04-03T10:20:32;8.5;29.8
79301;SHT31;68755;51.984;5.646;2023-04-03T10:23:17;8.6;28.7
79301;SHT31;68755;51.984;5.646;2023-04-03T10:25:59;8.6;27.5
79301;SHT31;68755;51.984;5.646;2023-04-03T10:28:39;8.7;27.4
79301;SHT31;68755;51.984;5.646;2023-04-03T10:31:20;8.7;27.2
79301;SHT31;68755;51.984;5.646;2023-04-03T10:33:58;8.7;28.2
79301;SHT31;68755;51.984;5.646;2023-04-03T10:36:36;8.7;28.1
79301;SHT31;68755;51.984;5.646;2023-04-03T10:39:19;8.7;28.5
79301;SHT31;68755;51.984;5.646;2023-04-03T10:41:58;8.7;29.3
79301;SHT31;68755;51.984;5.646;2023-04-03T10:44:40;8.7;30.0
79301;SHT31;68755;51.984;5.646;2023-04-03T10:47:18;8.7;30.4
79301;SHT31;68755;51.984;5.646;2023-04-03T10:50:00;8.7;31.4
79301;SHT31;68755;51.984;5.646;2023-04-03T10:52:39;8.8;31.7
79301;SHT31;68755;51.984;5.646;2023-04-03T10:55:24;8.8;30.6
79301;SHT31;68755;51.984;5.646;2023-04-03T10:57:59;8.8;31.8
79301;SHT31;68755;51.984;5.646;2023-04-03T11:00:36;8.8;32.0
79301;SHT31;68755;51.984;5.646;2023-04-03T11:03:12;8.9;31.4
79301;SHT31;68755;51.984;5.646;2023-04-03T11:05:46;8.9;32.1
79301;SHT31;68755;51.984;5.646;2023-04-03T11:08:26;8.9;31.9
79301;SHT31;68755;51.984;5.646;2023-04-03T11:11:03;9.0;32.5
79301;SHT31;68755;51.984;5.646;2023-04-03T11:13:40;9.0;32.2
79301;SHT31;68755;51.984;5.646;2023-04-03T11:16:17;9.1;31.9
79301;SHT31;68755;51.984;5.646;2023-04-03T11:18:52;9.1;32.3
79301;SHT31;68755;51.984;5.646;2023-04-03T11:21:28;9.1;32.6
79301;SHT31;68755;51.984;5.646;2023-04-03T11:24:04;9.2;31.6
79301;SHT31;68755;51.984;5.646;2023-04-03T11:26:40;9.2;32.3
79301;SHT31;68755;51.984;5.646;2023-04-03T11:29:16;9.2;32.1
79301;SHT31;68755;51.984;5.646;2023-04-03T11:32:04;9.2;32.2
79301;SHT31;68755;51.984;5.646;2023-04-03T11:34:40;9.3;33.0
79301;SHT31;68755;51.984;5.646;2023-04-03T11:37:17;9.3;31.8
79301;SHT31;68755;51.984;5.646;2023-04-03T11:39:56;9.3;31.1
79301;SHT31;68755;51.984;5.646;2023-04-03T11:42:32;9.4;32.1
79301;SHT31;68755;51.984;5.646;2023-04-03T11:45:36;9.4;32.2
79301;SHT31;68755;51.984;5.646;2023-04-03T11:48:43;9.4;31.4
79301;SHT31;68755;51.984;5.646;2023-04-03T11:53:33;9.4;30.4
79301;SHT31;68755;51.984;5.646;2023-04-03T11:56:30;9.5;30.9
79301;SHT31;68755;51.984;5.646;2023-04-03T11:59:25;9.5;31.3
79301;SHT31;68755;51.984;5.646;2023-04-03T12:01:57;9.6;30.1
79301;SHT31;68755;51.984;5.646;2023-04-03T12:04:27;9.6;30.8
79301;SHT31;68755;51.984;5.646;2023-04-03T12:07:16;9.7;31.0
79301;SHT31;68755;51.984;5.646;2023-04-03T12:10:20;9.8;31.8
79301;SHT31;68755;51.984;5.646;2023-04-03T12:13:00;9.8;30.3
79301;SHT31;68755;51.984;5.646;2023-04-03T12:15:53;9.8;30.1
79301;SHT31;68755;51.984;5.646;2023-04-03T12:19:30;9.8;30.2
79301;SHT31;68755;51.984;5.646;2023-04-03T12:22:12;9.8;30.9
79301;SHT31;68755;51.984;5.646;2023-04-03T12:24:42;9.8;30.9
79301;SHT31;68755;51.984;5.646;2023-04-03T12:27:21;9.8;31.7
79301;SHT31;68755;51.984;5.646;2023-04-03T12:29:55;9.8;31.1
79301;SHT31;68755;51.984;5.646;2023-04-03T12:32:55;9.8;30.9
79301;SHT31;68755;51.984;5.646;2023-04-03T12:35:29;9.8;30.5
79301;SHT31;68755;51.984;5.646;2023-04-03T12:39:16;9.8;31.3
79301;SHT31;68755;51.984;5.646;2023-04-03T12:41:55;9.9;31.6
79301;SHT31;68755;51.984;5.646;2023-04-03T12:44:40;9.9;31.5
79301;SHT31;68755;51.984;5.646;2023-04-03T12:47:22;9.9;31.8
79301;SHT31;68755;51.984;5.646;2023-04-03T12:49:55;9.9;32.0
79301;SHT31;68755;51.984;5.646;2023-04-03T12:52:47;9.9;32.5
79301;SHT31;68755;51.984;5.646;2023-04-03T12:55:20;10.0;32.6
79301;SHT31;68755;51.984;5.646;2023-04-03T12:57:50;10.0;32.2
79301;SHT31;68755;51.984;5.646;2023-04-03T13:00:21;10.0;33.6
79301;SHT31;68755;51.984;5.646;2023-04-03T13:02:54;10.0;31.9
79301;SHT31;68755;51.984;5.646;2023-04-03T13:05:24;10.0;32.0
79301;SHT31;68755;51.984;5.646;2023-04-03T13:07:57;10.0;31.8
79301;SHT31;68755;51.984;5.646;2023-04-03T13:10:27;10.0;31.0
79301;SHT31;68755;51.984;5.646;2023-04-03T13:13:06;10.1;31.5
79301;SHT31;68755;51.984;5.646;2023-04-03T13:15:43;10.0;31.0
79301;SHT31;68755;51.984;5.646;2023-04-03T13:18:31;10.0;31.5
79301;SHT31;68755;51.984;5.646;2023-04-03T13:21:05;10.0;31.0
79301;SHT31;68755;51.984;5.646;2023-04-03T13:23:39;10.0;30.8
79301;SHT31;68755;51.984;5.646;2023-04-03T13:26:10;10.0;31.0
79301;SHT31;68755;51.984;5.646;2023-04-03T13:28:41;10.0;31.8
79301;SHT31;68755;51.984;5.646;2023-04-03T13:31:20;10.0;31.3
79301;SHT31;68755;51.984;5.646;2023-04-03T13:33:57;10.0;31.2
79301;SHT31;68755;51.984;5.646;2023-04-03T13:36:31;10.0;31.3
79301;SHT31;68755;51.984;5.646;2023-04-03T13:39:05;10.0;32.0
79301;SHT31;68755;51.984;5.646;2023-04-03T13:41:37;10.0;32.1
79301;SHT31;68755;51.984;5.646;2023-04-03T13:44:31;10.0;32.2
79301;SHT31;68755;51.984;5.646;2023-04-03T13:47:19;10.0;32.5
79301;SHT31;68755;51.984;5.646;2023-04-03T13:50:04;10.0;32.4
79301;SHT31;68755;51.984;5.646;2023-04-03T13:52:41;10.1;32.1
79301;SHT31;68755;51.984;5.646;2023-04-03T13:55:19;10.1;32.8
79301;SHT31;68755;51.984;5.646;2023-04-03T13:57:55;10.1;32.7
79301;SHT31;68755;51.984;5.646;2023-04-03T14:00:38;10.1;33.2
79301;SHT31;68755;51.984;5.646;2023-04-03T14:03:22;10.1;33.0
79301;SHT31;68755;51.984;5.646;2023-04-03T14:05:52;10.1;32.7
79301;SHT31;68755;51.984;5.646;2023-04-03T14:08:22;10.1;32.5
79301;SHT31;68755;51.984;5.646;2023-04-03T14:10:53;10.1;32.3
79301;SHT31;68755;51.984;5.646;2023-04-03T14:13:23;10.2;32.4
79301;SHT31;68755;51.984;5.646;2023-04-03T14:15:52;10.2;32.8
79301;SHT31;68755;51.984;5.646;2023-04-03T14:18:22;10.2;32.3
79301;SHT31;68755;51.984;5.646;2023-04-03T14:20:54;10.2;32.6
79301;SHT31;68755;51.984;5.646;2023-04-03T14:23:24;10.2;33.2
79301;SHT31;68755;51.984;5.646;2023-04-03T14:25:53;10.2;32.5
79301;SHT31;68755;51.984;5.646;2023-04-03T14:28:24;10.2;32.9
79301;SHT31;68755;51.984;5.646;2023-04-03T14:30:53;10.1;33.7
79301;SHT31;68755;51.984;5.646;2023-04-03T14:33:23;10.1;34.0
79301;SHT31;68755;51.984;5.646;2023-04-03T14:35:56;10.1;33.7
79301;SHT31;68755;51.984;5.646;2023-04-03T14:38:29;10.1;33.4
79301;SHT31;68755;51.984;5.646;2023-04-03T14:40:59;10.1;33.4
79301;SHT31;68755;51.984;5.646;2023-04-03T14:43:29;10.1;34.0
79301;SHT31;68755;51.984;5.646;2023-04-03T14:45:59;10.1;34.3
79301;SHT31;68755;51.984;5.646;2023-04-03T14:48:30;10.2;34.0
79301;SHT31;68755;51.984;5.646;2023-04-03T14:51:00;10.2;34.6
79301;SHT31;68755;51.984;5.646;2023-04-03T14:53:29;10.2;34.7
79301;SHT31;68755;51.984;5.646;2023-04-03T14:55:59;10.2;34.5
79301;SHT31;68755;51.984;5.646;2023-04-03T14:58:31;10.2;34.6
79301;SHT31;68755;51.984;5.646;2023-04-03T15:01:04;10.2;35.2
79301;SHT31;68755;51.984;5.646;2023-04-03T15:03:33;10.2;34.3
79301;SHT31;68755;51.984;5.646;2023-04-03T15:06:03;10.2;34.2
79301;SHT31;68755;51.984;5.646;2023-04-03T15:08:33;10.2;34.9
79301;SHT31;68755;51.984;5.646;2023-04-03T15:11:05;10.2;34.8
79301;SHT31;68755;51.984;5.646;2023-04-03T15:13:37;10.2;35.2
79301;SHT31;68755;51.984;5.646;2023-04-03T15:16:16;10.2;34.6
79301;SHT31;68755;51.984;5.646;2023-04-03T15:18:49;10.2;35.2
79301;SHT31;68755;51.984;5.646;2023-04-03T15:21:23;10.2;35.2
79301;SHT31;68755;51.984;5.646;2023-04-03T15:23:54;10.2;36.0
79301;SHT31;68755;51.984;5.646;2023-04-03T15:26:24;10.2;36.0
79301;SHT31;68755;51.984;5.646;2023-04-03T15:28:54;10.2;35.1
79301;SHT31;68755;51.984;5.646;2023-04-03T15:31:27;10.2;35.7
79301;SHT31;68755;51.984;5.646;2023-04-03T15:33:58;10.3;36.0
79301;SHT31;68755;51.984;5.646;2023-04-03T15:36:27;10.3;36.2
79301;SHT31;68755;51.984;5.646;2023-04-03T15:38:57;10.2;35.9
79301;SHT31;68755;51.984;5.646;2023-04-03T15:41:27;10.2;35.3
79301;SHT31;68755;51.984;5.646;2023-04-03T15:43:57;10.2;36.2
79301;SHT31;68755;51.984;5.646;2023-04-03T15:46:27;10.2;35.7
79301;SHT31;68755;51.984;5.646;2023-04-03T15:48:57;10.2;36.3
79301;SHT31;68755;51.984;5.646;2023-04-03T15:51:27;10.2;36.1
79301;SHT31;68755;51.984;5.646;2023-04-03T15:53:57;10.3;36.7
79301;SHT31;68755;51.984;5.646;2023-04-03T15:56:27;10.3;37.1
79301;SHT31;68755;51.984;5.646;2023-04-03T15:58:59;10.4;36.3
79301;SHT31;68755;51.984;5.646;2023-04-03T16:01:29;10.5;35.6
79301;SHT31;68755;51.984;5.646;2023-04-03T16:03:58;10.5;35.8
79301;SHT31;68755;51.984;5.646;2023-04-03T16:06:28;10.5;36.7
79301;SHT31;68755;51.984;5.646;2023-04-03T16:09:01;10.5;36.5
79301;SHT31;68755;51.984;5.646;2023-04-03T16:11:30;10.5;36.3
79301;SHT31;68755;51.984;5.646;2023-04-03T16:14:02;10.4;36.5
79301;SHT31;68755;51.984;5.646;2023-04-03T16:16:32;10.4;36.6
79301;SHT31;68755;51.984;5.646;2023-04-03T16:19:03;10.4;36.2
79301;SHT31;68755;51.984;5.646;2023-04-03T16:21:33;10.4;36.8
79301;SHT31;68755;51.984;5.646;2023-04-03T16:24:04;10.4;36.2
79301;SHT31;68755;51.984;5.646;2023-04-03T16:26:35;10.4;36.3
79301;SHT31;68755;51.984;5.646;2023-04-03T16:29:05;10.3;35.7
79301;SHT31;68755;51.984;5.646;2023-04-03T16:31:37;10.3;35.8
79301;SHT31;68755;51.984;5.646;2023-04-03T16:34:06;10.3;35.5
79301;SHT31;68755;51.984;5.646;2023-04-03T16:36:36;10.3;35.7
79301;SHT31;68755;51.984;5.646;2023-04-03T16:39:07;10.2;35.6
79301;SHT31;68755;51.984;5.646;2023-04-03T16:41:37;10.2;36.0
79301;SHT31;68755;51.984;5.646;2023-04-03T16:44:07;10.2;36.4
79301;SHT31;68755;51.984;5.646;2023-04-03T16:46:37;10.1;36.7
79301;SHT31;68755;51.984;5.646;2023-04-03T16:49:06;10.1;36.8
79301;SHT31;68755;51.984;5.646;2023-04-03T16:51:36;10.1;36.6
79301;SHT31;68755;51.984;5.646;2023-04-03T16:54:05;10.1;36.7
79301;SHT31;68755;51.984;5.646;2023-04-03T16:56:37;10.0;37.5